Time;durP1;ratioP1;P1;durP2;ratioP2;P2;SDS_P1;SDS_P2;PMS_P1;PMS_P2;Temp;Humidity;BMP_temperature;BMP_pressure;BME280_temperature;BME280_humidity;BME280_pressure;Samples;Min_cycle;Max_cycle;Signal;HPM_P1;HPM_P2
2024/04/14 00:00:13;;;;;;;;;;;;;;;14.32;77.55;97076.75;5433310;26;19968;-66
2024/04/14 00:02:39;;;;;;;;;;;;;;;14.26;78.23;97075.84;5433391;26;19977;-66
2024/04/14 00:05:05;;;;;;;;;;;;;;;14.23;77.21;97068.38;5433119;26;20153;-67
2024/04/14 00:07:31;;;;;;;;;;;;;;;14.16;78.27;97073.75;5433291;26;19977;-66
2024/04/14 00:09:56;;;;;;;;;;;;;;;14.14;78.30;97067.09;5433290;26;19954;-66
2024/04/14 00:12:22;;;;;;;;;;;;;;;14.11;78.54;97064.88;5432544;26;19963;-75
2024/04/14 00:14:49;;;;;;;;;;;;;;;14.09;77.33;97062.50;5432331;26;19967;-66
2024/04/14 00:17:15;;;;;;;;;;;;;;;14.03;77.87;97058.13;5433073;26;20153;-67
2024/04/14 00:19:41;;;;;;;;;;;;;;;14.01;78.78;97057.53;5432160;26;19954;-66
2024/04/14 00:22:07;;;;;;;;;;;;;;;13.98;79.04;97060.59;5433010;26;19954;-66
2024/04/14 00:24:33;;;;;;;;;;;;;;;13.94;79.84;97052.34;5432314;26;19998;-66
2024/04/14 00:26:59;;;;;;;;;;;;;;;13.92;76.99;97032.50;5432982;26;19953;-66
2024/04/14 00:29:24;;;;;;;;;;;;;;;13.89;76.87;97031.13;5432848;26;20150;-70
2024/04/14 00:31:50;;;;;;;;;;;;;;;13.90;78.61;97038.00;5432991;26;19967;-70
2024/04/14 00:34:16;;;;;;;;;;;;;;;13.89;77.44;97028.47;5432808;26;19997;-66
2024/04/14 00:36:42;;;;;;;;;;;;;;;13.91;77.57;97036.16;5432075;26;19983;-67
2024/04/14 00:39:11;;;;;;;;;;;;;;;13.91;76.91;97029.06;5432780;26;19954;-67
2024/04/14 00:41:38;;;;;;;;;;;;;;;13.90;77.28;97018.72;5432750;26;20094;-66
2024/04/14 00:44:04;;;;;;;;;;;;;;;13.88;75.87;97018.97;5432649;26;19951;-67
2024/04/14 00:46:30;;;;;;;;;;;;;;;13.84;76.47;97017.81;5432706;26;19995;-66
2024/04/14 00:48:56;;;;;;;;;;;;;;;13.77;77.25;97027.63;5432121;26;19978;-70
2024/04/14 00:51:22;;;;;;;;;;;;;;;13.73;76.00;97021.19;5432595;26;19965;-70
2024/04/14 00:53:48;;;;;;;;;;;;;;;13.69;77.17;97031.41;5432767;26;19957;-70
2024/04/14 00:56:14;;;;;;;;;;;;;;;13.67;78.07;97036.09;5432574;26;20026;-70
2024/04/14 00:58:40;;;;;;;;;;;;;;;13.63;77.43;97036.72;5432226;26;19960;-70
2024/04/14 01:01:06;;;;;;;;;;;;;;;13.60;77.15;97016.91;5432444;26;19976;-70
2024/04/14 01:03:33;;;;;;;;;;;;;;;13.58;77.06;97018.97;5431847;26;19954;-70
2024/04/14 01:05:59;;;;;;;;;;;;;;;13.51;77.14;97021.69;5432355;26;20090;-70
2024/04/14 01:08:25;;;;;;;;;;;;;;;13.51;76.47;97024.31;5432353;26;19963;-79
2024/04/14 01:10:51;;;;;;;;;;;;;;;13.50;76.99;97027.16;5432464;26;19969;-72
2024/04/14 01:13:17;;;;;;;;;;;;;;;13.48;78.24;97023.94;5432309;26;19969;-73
2024/04/14 01:15:43;;;;;;;;;;;;;;;13.44;75.72;97012.25;5432282;26;19947;-72
2024/04/14 01:18:09;;;;;;;;;;;;;;;13.42;76.71;97023.03;5432268;26;19950;-72
2024/04/14 01:20:34;;;;;;;;;;;;;;;13.41;77.99;97021.41;5431513;26;20023;-72
2024/04/14 01:23:00;;;;;;;;;;;;;;;13.40;77.50;97017.97;5431447;26;19959;-72
2024/04/14 01:25:26;;;;;;;;;;;;;;;13.40;78.05;97023.25;5431300;26;19998;-75
2024/04/14 01:27:52;;;;;;;;;;;;;;;13.38;78.11;97021.84;5432182;26;19981;-66
2024/04/14 01:30:18;;;;;;;;;;;;;;;13.34;78.45;97021.47;5432111;26;20022;-66
2024/04/14 01:32:44;;;;;;;;;;;;;;;13.34;78.24;97023.31;5432054;26;19980;-66
2024/04/14 01:35:10;;;;;;;;;;;;;;;13.33;78.46;97019.06;5432062;26;19951;-66
2024/04/14 01:37:36;;;;;;;;;;;;;;;13.31;78.06;97018.47;5432002;26;20178;-66
2024/04/14 01:40:02;;;;;;;;;;;;;;;13.28;77.25;97018.91;5431274;26;19961;-66
2024/04/14 01:42:28;;;;;;;;;;;;;;;13.26;79.10;97024.38;5431969;26;19952;-66
2024/04/14 01:44:54;;;;;;;;;;;;;;;13.25;79.21;97024.59;5431272;26;19994;-70
2024/04/14 01:47:20;;;;;;;;;;;;;;;13.25;78.82;97032.50;5431856;26;20247;-66
2024/04/14 01:49:46;;;;;;;;;;;;;;;13.23;78.01;97026.66;5431876;26;20177;-67
2024/04/14 01:52:12;;;;;;;;;;;;;;;13.22;78.44;97019.78;5430961;26;19955;-66
2024/04/14 01:54:37;;;;;;;;;;;;;;;13.22;77.58;97015.31;5431717;26;19949;-67
2024/04/14 01:57:03;;;;;;;;;;;;;;;13.21;78.91;97011.09;5431628;26;19954;-66
2024/04/14 01:59:29;;;;;;;;;;;;;;;13.19;77.85;97013.94;5431623;26;19980;-67
2024/04/14 02:01:55;;;;;;;;;;;;;;;13.18;79.12;97006.25;5431649;26;19952;-67
2024/04/14 02:04:21;;;;;;;;;;;;;;;13.17;79.38;97015.97;5431510;26;19970;-75
2024/04/14 02:06:49;;;;;;;;;;;;;;;13.16;79.05;97018.81;5431588;26;19954;-75
2024/04/14 02:09:14;;;;;;;;;;;;;;;13.13;79.73;97016.63;5431531;26;19972;-75
2024/04/14 02:11:40;;;;;;;;;;;;;;;13.11;79.68;97018.69;5431552;26;20018;-76
2024/04/14 02:14:06;;;;;;;;;;;;;;;13.07;80.20;97014.88;5431454;26;19986;-75
2024/04/14 02:16:32;;;;;;;;;;;;;;;13.05;80.93;97016.94;5431386;26;19987;-75
2024/04/14 02:18:58;;;;;;;;;;;;;;;12.98;80.82;97017.81;5431431;26;19953;-76
2024/04/14 02:21:24;;;;;;;;;;;;;;;12.91;80.91;97022.31;5431405;26;20003;-72
2024/04/14 02:23:50;;;;;;;;;;;;;;;12.84;80.96;97018.16;5431327;26;20021;-78
2024/04/14 02:26:16;;;;;;;;;;;;;;;12.77;82.21;97024.28;5431207;26;19958;-79
2024/04/14 02:28:41;;;;;;;;;;;;;;;12.69;82.26;97019.31;5431317;26;20013;-79
2024/04/14 02:31:08;;;;;;;;;;;;;;;12.66;82.58;97021.56;5431309;26;19970;-79
2024/04/14 02:33:33;;;;;;;;;;;;;;;12.58;83.10;97018.19;5431188;26;20004;-77
2024/04/14 02:36:00;;;;;;;;;;;;;;;12.52;83.27;97015.63;5431219;26;20057;-79
2024/04/14 02:38:26;;;;;;;;;;;;;;;12.47;83.61;97018.09;5431163;26;19969;-66
2024/04/14 02:40:59;;;;;;;;;;;;;;;12.42;83.65;97012.69;5430472;26;19956;-69
2024/04/14 02:43:26;;;;;;;;;;;;;;;12.35;84.54;97016.16;5430972;26;19953;-71
2024/04/14 02:45:53;;;;;;;;;;;;;;;12.32;84.37;97016.56;5430844;26;20168;-71
2024/04/14 02:48:19;;;;;;;;;;;;;;;12.27;84.87;97010.38;5430906;26;20098;-71
2024/04/14 02:50:45;;;;;;;;;;;;;;;12.24;85.52;97008.16;5430335;26;19960;-71
2024/04/14 02:53:10;;;;;;;;;;;;;;;12.21;84.51;97011.22;5429361;26;20042;-71
2024/04/14 02:55:37;;;;;;;;;;;;;;;12.18;85.08;97002.75;5430771;26;19949;-70
2024/04/14 02:58:03;;;;;;;;;;;;;;;12.17;85.48;97002.94;5430311;26;19970;-70
2024/04/14 03:00:29;;;;;;;;;;;;;;;12.15;86.07;97008.41;5430647;26;20010;-71
2024/04/14 03:02:55;;;;;;;;;;;;;;;12.14;85.63;97003.38;5429904;26;20030;-71
2024/04/14 03:05:22;;;;;;;;;;;;;;;12.12;86.45;97011.47;5430536;26;19990;-71
2024/04/14 03:07:48;;;;;;;;;;;;;;;12.10;86.59;97012.72;5430583;26;19956;-70
2024/04/14 03:10:14;;;;;;;;;;;;;;;12.09;86.20;97013.72;5429761;26;20183;-70
2024/04/14 03:12:40;;;;;;;;;;;;;;;12.06;86.34;97003.66;5430528;26;19950;-71
2024/04/14 03:15:06;;;;;;;;;;;;;;;12.05;86.79;97005.44;5430491;26;19969;-76
2024/04/14 03:17:32;;;;;;;;;;;;;;;12.05;86.12;97008.06;5430455;26;19962;-67
2024/04/14 03:19:58;;;;;;;;;;;;;;;12.02;87.28;97000.63;5430392;26;19965;-75
2024/04/14 03:22:24;;;;;;;;;;;;;;;12.03;87.29;96998.81;5429734;26;19962;-76
2024/04/14 03:24:50;;;;;;;;;;;;;;;12.02;85.93;96997.22;5430215;26;19982;-74
2024/04/14 03:27:16;;;;;;;;;;;;;;;12.01;86.20;97000.84;5430506;26;19988;-75
2024/04/14 03:29:42;;;;;;;;;;;;;;;11.99;87.29;97008.97;5430243;26;20027;-75
2024/04/14 03:32:08;;;;;;;;;;;;;;;11.97;86.12;96998.66;5429517;26;19957;-76
2024/04/14 03:34:34;;;;;;;;;;;;;;;11.96;86.39;96994.41;5430163;26;20150;-67
2024/04/14 03:37:01;;;;;;;;;;;;;;;11.97;85.00;96988.13;5430123;26;19953;-71
2024/04/14 03:39:26;;;;;;;;;;;;;;;11.98;86.49;96999.44;5430028;26;19961;-71
2024/04/14 03:41:52;;;;;;;;;;;;;;;11.98;86.21;96995.00;5430212;26;19958;-71
2024/04/14 03:44:18;;;;;;;;;;;;;;;11.98;86.28;96995.00;5430113;26;19952;-71
2024/04/14 03:46:44;;;;;;;;;;;;;;;11.97;86.57;96990.75;5429813;26;19961;-71
2024/04/14 03:49:10;;;;;;;;;;;;;;;11.96;86.34;96994.41;5429852;26;19961;-71
2024/04/14 03:51:36;;;;;;;;;;;;;;;11.95;84.92;96986.75;5429346;26;20000;-70
2024/04/14 03:54:01;;;;;;;;;;;;;;;11.92;87.25;96989.78;5429810;26;19961;-66
2024/04/14 03:56:27;;;;;;;;;;;;;;;11.88;85.99;96996.44;5429835;26;19977;-70
2024/04/14 03:58:53;;;;;;;;;;;;;;;11.85;87.30;96997.69;5429808;26;20064;-70
2024/04/14 04:01:19;;;;;;;;;;;;;;;11.80;87.89;96992.28;5429517;26;19963;-70
2024/04/14 04:03:45;;;;;;;;;;;;;;;11.78;88.27;96994.31;5431119;26;20198;-69
2024/04/14 04:06:11;;;;;;;;;;;;;;;11.75;87.70;96997.34;5433188;26;19983;-70
2024/04/14 04:08:36;;;;;;;;;;;;;;;11.72;87.84;96995.16;5433281;26;19981;-70
2024/04/14 04:11:03;;;;;;;;;;;;;;;11.69;88.40;96995.56;5433194;26;19963;-78
2024/04/14 04:13:30;;;;;;;;;;;;;;;11.67;87.44;96994.97;5433087;26;19967;-70
2024/04/14 04:15:56;;;;;;;;;;;;;;;11.65;88.12;96989.91;5433305;26;20071;-70
2024/04/14 04:18:22;;;;;;;;;;;;;;;11.66;87.24;96985.47;5433269;26;19958;-71
2024/04/14 04:21:06;;;;;;;;;;;;;;;11.64;86.33;96987.50;5433277;26;20144;-70
2024/04/14 04:23:32;;;;;;;;;;;;;;;11.62;89.36;96995.59;5433059;26;20084;-70
2024/04/14 04:25:59;;;;;;;;;;;;;;;11.59;88.17;96990.78;5432963;26;19976;-71
2024/04/14 04:28:27;;;;;;;;;;;;;;;11.56;86.93;96986.72;5432847;26;19947;-70
2024/04/14 04:30:53;;;;;;;;;;;;;;;11.57;88.23;96995.44;5433036;26;20081;-78
2024/04/14 04:33:19;;;;;;;;;;;;;;;11.54;88.43;96999.25;5432109;26;19967;-76
2024/04/14 04:35:55;;;;;;;;;;;;;;;11.54;89.37;96995.84;5432905;26;19951;-75
2024/04/14 04:38:24;;;;;;;;;;;;;;;11.53;88.34;96997.66;5433041;26;20101;-76
2024/04/14 04:40:51;;;;;;;;;;;;;;;11.52;89.07;96998.66;5432780;26;19953;-76
2024/04/14 04:43:17;;;;;;;;;;;;;;;11.52;87.88;96984.72;5432726;26;19947;-76
2024/04/14 04:45:43;;;;;;;;;;;;;;;11.51;89.36;96997.06;5432631;26;19980;-76
2024/04/14 04:48:09;;;;;;;;;;;;;;;11.51;88.73;96993.66;5432675;26;20024;-67
2024/04/14 04:50:35;;;;;;;;;;;;;;;11.50;89.42;96990.19;5432800;26;19957;-66
2024/04/14 04:53:04;;;;;;;;;;;;;;;11.53;85.44;96973.22;5432543;26;19953;-68
2024/04/14 04:55:30;;;;;;;;;;;;;;;11.56;87.51;96988.56;5432778;26;19952;-67
2024/04/14 04:57:56;;;;;;;;;;;;;;;11.60;87.61;97000.25;5432579;26;19978;-66
2024/04/14 05:00:22;;;;;;;;;;;;;;;11.63;88.41;96996.41;5431837;26;20176;-67
2024/04/14 05:02:47;;;;;;;;;;;;;;;11.66;88.16;97002.03;5432486;26;19986;-66
2024/04/14 05:05:14;;;;;;;;;;;;;;;11.70;88.50;96997.97;5431642;26;20000;-68
2024/04/14 05:07:40;;;;;;;;;;;;;;;11.75;87.87;96995.50;5432393;26;20032;-69
2024/04/14 05:10:06;;;;;;;;;;;;;;;11.80;88.52;97005.41;5432302;26;20176;-79
2024/04/14 05:12:32;;;;;;;;;;;;;;;11.85;86.90;97005.56;5431759;26;19954;-79
2024/04/14 05:14:58;;;;;;;;;;;;;;;11.93;88.16;97002.72;5431181;26;19977;-79
2024/04/14 05:17:24;;;;;;;;;;;;;;;12.03;86.04;96993.53;5432255;26;20044;-79
2024/04/14 05:19:49;;;;;;;;;;;;;;;12.18;86.47;96999.31;5432292;26;20082;-78
2024/04/14 05:22:15;;;;;;;;;;;;;;;12.38;83.34;96992.03;5432183;26;20200;-79
2024/04/14 05:24:41;;;;;;;;;;;;;;;12.58;85.78;97001.63;5432128;26;19945;-75
2024/04/14 05:27:09;;;;;;;;;;;;;;;12.80;81.36;96983.56;5432055;26;19967;-66
2024/04/14 05:29:35;;;;;;;;;;;;;;;13.01;83.57;96987.59;5431583;26;20025;-67
2024/04/14 05:32:01;;;;;;;;;;;;;;;13.25;82.37;96985.09;5432250;26;19951;-67
2024/04/14 05:34:27;;;;;;;;;;;;;;;13.50;77.49;96974.47;5432057;26;19967;-67
2024/04/14 05:36:53;;;;;;;;;;;;;;;13.70;79.52;96984.75;5431971;26;19952;-66
2024/04/14 05:39:19;;;;;;;;;;;;;;;13.92;77.43;96972.66;5431902;26;20080;-66
2024/04/14 05:41:45;;;;;;;;;;;;;;;14.09;78.86;96983.38;5431975;26;20184;-66
2024/04/14 05:44:10;;;;;;;;;;;;;;;14.28;79.23;96981.44;5431875;26;20058;-79
2024/04/14 05:46:36;;;;;;;;;;;;;;;14.49;78.83;96985.34;5431806;26;19999;-75
2024/04/14 05:49:03;;;;;;;;;;;;;;;14.67;79.34;96984.44;5431889;26;19967;-75
2024/04/14 05:51:28;;;;;;;;;;;;;;;14.76;78.06;96977.81;5431725;26;19980;-75
2024/04/14 05:53:54;;;;;;;;;;;;;;;14.89;77.45;96982.03;5431955;26;19985;-75
2024/04/14 05:56:21;;;;;;;;;;;;;;;14.97;77.14;96975.56;5431711;26;19963;-76
2024/04/14 05:58:48;;;;;;;;;;;;;;;14.98;71.56;96958.72;5431745;26;19969;-75
2024/04/14 06:01:14;;;;;;;;;;;;;;;14.96;71.19;96966.06;5431617;26;19953;-70
2024/04/14 06:03:40;;;;;;;;;;;;;;;14.92;71.58;96978.91;5431669;26;19975;-71
2024/04/14 06:06:06;;;;;;;;;;;;;;;14.92;74.47;96993.97;5431722;26;20183;-71
2024/04/14 06:08:32;;;;;;;;;;;;;;;14.89;74.86;96991.78;5430721;26;19988;-71
2024/04/14 06:10:58;;;;;;;;;;;;;;;14.85;73.65;96985.38;5431537;26;19948;-71
2024/04/14 06:13:24;;;;;;;;;;;;;;;14.81;77.79;97001.66;5431454;26;19963;-71
2024/04/14 06:15:50;;;;;;;;;;;;;;;14.80;75.07;96989.50;5431505;26;20104;-71
2024/04/14 06:18:16;;;;;;;;;;;;;;;14.86;76.35;96998.31;5431373;26;19948;-70
2024/04/14 06:20:42;;;;;;;;;;;;;;;14.93;78.31;97006.94;5431481;26;20053;-72
2024/04/14 06:23:08;;;;;;;;;;;;;;;14.99;77.05;97003.38;5431294;26;19982;-72
2024/04/14 06:25:33;;;;;;;;;;;;;;;15.02;72.65;96989.69;5431220;26;19962;-72
2024/04/14 06:27:59;;;;;;;;;;;;;;;15.02;70.78;96987.06;5431170;26;19970;-72
2024/04/14 06:30:25;;;;;;;;;;;;;;;15.03;71.59;96982.56;5430567;26;19973;-73
2024/04/14 06:32:51;;;;;;;;;;;;;;;15.07;71.24;96982.91;5431249;26;19951;-73
2024/04/14 06:35:17;;;;;;;;;;;;;;;15.23;74.18;96993.56;5431178;26;20150;-72
2024/04/14 06:37:43;;;;;;;;;;;;;;;15.52;76.19;97004.16;5431092;26;19963;-70
2024/04/14 06:40:09;;;;;;;;;;;;;;;15.90;71.03;96984.25;5431086;26;19975;-69
2024/04/14 06:42:35;;;;;;;;;;;;;;;16.27;69.10;96978.50;5431042;26;19949;-70
2024/04/14 06:45:01;;;;;;;;;;;;;;;16.49;66.86;96967.97;5430866;26;20035;-70
2024/04/14 06:47:27;;;;;;;;;;;;;;;16.71;66.52;96965.38;5430908;26;19955;-70
2024/04/14 06:49:52;;;;;;;;;;;;;;;16.80;64.65;96949.88;5430997;26;19951;-70
2024/04/14 06:52:18;;;;;;;;;;;;;;;16.77;65.30;96955.66;5430842;26;20143;-70
2024/04/14 06:54:44;;;;;;;;;;;;;;;16.68;66.83;96973.00;5430768;26;20022;-70
2024/04/14 06:57:10;;;;;;;;;;;;;;;16.56;68.83;96976.53;5430821;26;20028;-76
2024/04/14 06:59:36;;;;;;;;;;;;;;;16.60;67.09;96980.31;5430709;26;19950;-71
2024/04/14 07:02:02;;;;;;;;;;;;;;;16.75;67.12;96969.13;5430822;26;19979;-72
2024/04/14 07:04:27;;;;;;;;;;;;;;;16.99;64.06;96955.72;5430676;26;19948;-71
2024/04/14 07:06:53;;;;;;;;;;;;;;;17.24;62.76;96956.00;5430477;26;19996;-71
2024/04/14 07:09:19;;;;;;;;;;;;;;;17.51;63.33;96957.06;5430576;26;20030;-70
2024/04/14 07:11:45;;;;;;;;;;;;;;;17.71;60.36;96946.69;5430508;26;19977;-70
2024/04/14 07:14:11;;;;;;;;;;;;;;;17.87;59.72;96949.50;5429843;26;19982;-70
2024/04/14 07:16:37;;;;;;;;;;;;;;;17.93;59.13;96948.47;5430514;26;19948;-70
2024/04/14 07:19:03;;;;;;;;;;;;;;;17.98;58.05;96943.22;5430460;26;19966;-71
2024/04/14 07:21:28;;;;;;;;;;;;;;;18.01;59.66;96951.47;5430397;26;20003;-70
2024/04/14 07:23:54;;;;;;;;;;;;;;;18.07;58.59;96951.53;5430311;26;20093;-71
2024/04/14 07:26:20;;;;;;;;;;;;;;;18.24;61.18;96960.94;5430182;26;20208;-70
2024/04/14 07:28:46;;;;;;;;;;;;;;;18.36;58.31;96958.13;5430247;26;19963;-70
2024/04/14 07:31:12;;;;;;;;;;;;;;;18.56;57.74;96956.66;5430228;26;19946;-71
2024/04/14 07:33:37;;;;;;;;;;;;;;;18.80;57.31;96949.91;5429427;26;19968;-70
2024/04/14 07:36:03;;;;;;;;;;;;;;;18.83;58.15;96961.88;5430148;26;19972;-70
2024/04/14 07:38:29;;;;;;;;;;;;;;;18.86;58.79;96958.72;5431186;26;19954;-70
2024/04/14 07:40:55;;;;;;;;;;;;;;;18.88;58.67;96953.13;5433631;26;20041;-70
2024/04/14 07:43:21;;;;;;;;;;;;;;;18.87;59.94;96962.97;5433672;26;19944;-70
2024/04/14 07:45:47;;;;;;;;;;;;;;;18.86;58.62;96948.88;5433470;26;19954;-70
2024/04/14 07:48:12;;;;;;;;;;;;;;;18.79;57.53;96961.63;5433570;26;19961;-70
2024/04/14 07:50:42;;;;;;;;;;;;;;;18.75;58.30;96955.19;5433575;26;19979;-70
2024/04/14 07:53:08;;;;;;;;;;;;;;;18.77;59.76;96961.03;5433492;26;19978;-70
2024/04/14 07:55:33;;;;;;;;;;;;;;;18.89;60.89;96976.78;5433457;26;19998;-70
2024/04/14 07:57:59;;;;;;;;;;;;;;;19.13;58.97;96971.06;5433498;26;19956;-70
2024/04/14 08:00:25;;;;;;;;;;;;;;;19.33;57.50;96957.84;5433284;26;20191;-70
2024/04/14 08:02:51;;;;;;;;;;;;;;;19.55;56.21;96951.50;5433375;26;20029;-70
2024/04/14 08:05:17;;;;;;;;;;;;;;;19.69;54.03;96941.97;5433246;26;19977;-70
2024/04/14 08:07:43;;;;;;;;;;;;;;;19.81;56.46;96942.53;5433446;26;19946;-70
2024/04/14 08:10:08;;;;;;;;;;;;;;;19.86;55.25;96944.41;5432759;26;19980;-66
2024/04/14 08:12:36;;;;;;;;;;;;;;;19.75;55.85;96940.94;5433242;26;19980;-72
2024/04/14 08:15:02;;;;;;;;;;;;;;;19.66;56.78;96947.81;5433210;26;19978;-74
2024/04/14 08:17:30;;;;;;;;;;;;;;;19.71;57.88;96953.16;5433180;26;19986;-73
2024/04/14 08:19:56;;;;;;;;;;;;;;;19.79;57.57;96943.88;5432576;26;19969;-73
2024/04/14 08:22:22;;;;;;;;;;;;;;;19.98;61.58;96965.44;5433025;26;19962;-73
2024/04/14 08:24:48;;;;;;;;;;;;;;;20.26;57.70;96950.78;5433314;26;19952;-73
2024/04/14 08:27:14;;;;;;;;;;;;;;;20.43;55.92;96939.84;5433195;26;20148;-72
2024/04/14 08:29:39;;;;;;;;;;;;;;;20.54;57.54;96933.47;5433133;26;19959;-67
2024/04/14 08:32:05;;;;;;;;;;;;;;;20.61;57.09;96946.53;5432961;26;19986;-71
2024/04/14 08:34:31;;;;;;;;;;;;;;;20.64;56.41;96935.31;5432872;26;19955;-71
2024/04/14 08:36:57;;;;;;;;;;;;;;;20.57;56.05;96932.13;5432899;26;19950;-70
2024/04/14 08:39:23;;;;;;;;;;;;;;;20.56;58.10;96941.19;5432779;26;19965;-71
2024/04/14 08:41:49;;;;;;;;;;;;;;;20.57;57.24;96946.22;5432886;26;19971;-70
2024/04/14 08:44:15;;;;;;;;;;;;;;;20.73;57.25;96939.03;5432839;26;19955;-70
2024/04/14 08:46:42;;;;;;;;;;;;;;;20.92;58.41;96941.13;5432124;26;19982;-68
2024/04/14 08:49:10;;;;;;;;;;;;;;;21.20;58.73;96942.31;5432135;26;19959;-77
2024/04/14 08:51:35;;;;;;;;;;;;;;;21.47;57.65;96948.09;5430828;26;19958;-76
2024/04/14 08:54:01;;;;;;;;;;;;;;;21.59;58.03;96934.41;5432670;26;19966;-75
2024/04/14 08:56:29;;;;;;;;;;;;;;;21.61;55.76;96936.81;5432605;26;20088;-76
2024/04/14 08:59:03;;;;;;;;;;;;;;;21.67;55.41;96941.84;5432539;26;19959;-76
2024/04/14 09:01:30;;;;;;;;;;;;;;;21.69;54.51;96922.84;5432472;26;19944;-77
2024/04/14 09:03:56;;;;;;;;;;;;;;;21.70;54.56;96924.47;5432454;26;19948;-76
2024/04/14 09:06:22;;;;;;;;;;;;;;;21.87;55.26;96921.41;5432344;26;19972;-73
2024/04/14 09:08:48;;;;;;;;;;;;;;;21.94;53.56;96918.41;5432478;26;19971;-76
2024/04/14 09:11:14;;;;;;;;;;;;;;;21.91;54.82;96929.66;5432394;26;19949;-75
2024/04/14 09:13:40;;;;;;;;;;;;;;;22.03;56.95;96930.91;5432382;26;19984;-76
2024/04/14 09:16:08;;;;;;;;;;;;;;;22.14;54.77;96925.47;5432424;26;19958;-75
2024/04/14 09:18:34;;;;;;;;;;;;;;;22.28;54.07;96916.56;5432566;26;20081;-75
2024/04/14 09:21:01;;;;;;;;;;;;;;;22.36;55.40;96923.13;5432273;26;19964;-75
2024/04/14 09:23:27;;;;;;;;;;;;;;;22.56;54.41;96924.03;5432237;26;19974;-67
2024/04/14 09:25:53;;;;;;;;;;;;;;;22.69;52.28;96912.66;5432246;26;20093;-69
2024/04/14 09:28:19;;;;;;;;;;;;;;;22.72;54.34;96924.66;5432136;26;19956;-69
2024/04/14 09:30:45;;;;;;;;;;;;;;;22.92;54.62;96915.63;5432143;26;19986;-69
2024/04/14 09:33:11;;;;;;;;;;;;;;;23.08;53.61;96912.50;5432108;26;19950;-70
2024/04/14 09:35:37;;;;;;;;;;;;;;;23.19;53.45;96921.19;5432075;26;19964;-70
2024/04/14 09:38:06;;;;;;;;;;;;;;;23.32;53.16;96913.53;5432032;26;19973;-70
2024/04/14 09:40:34;;;;;;;;;;;;;;;23.49;50.65;96911.16;5431403;26;19959;-69
2024/04/14 09:43:01;;;;;;;;;;;;;;;23.75;50.68;96911.59;5431932;26;19975;-70
2024/04/14 09:45:28;;;;;;;;;;;;;;;23.77;49.15;96909.44;5432259;26;19966;-70
2024/04/14 09:47:55;;;;;;;;;;;;;;;23.90;50.21;96911.38;5431819;26;19957;-70
2024/04/14 09:50:21;;;;;;;;;;;;;;;24.01;50.51;96914.66;5431830;26;19961;-70
2024/04/14 09:52:52;;;;;;;;;;;;;;;24.14;48.63;96912.31;5431895;26;19955;-70
2024/04/14 09:55:19;;;;;;;;;;;;;;;24.19;48.25;96910.38;5431817;26;19971;-70
2024/04/14 09:57:44;;;;;;;;;;;;;;;24.33;50.09;96910.38;5431146;26;19959;-70
2024/04/14 10:00:10;;;;;;;;;;;;;;;24.49;50.75;96910.94;5431738;26;19980;-71
2024/04/14 10:02:57;;;;;;;;;;;;;;;24.63;48.38;96909.06;5431068;26;19962;-67
2024/04/14 10:05:24;;;;;;;;;;;;;;;24.95;48.64;96895.81;5431076;26;20183;-70
2024/04/14 10:07:50;;;;;;;;;;;;;;;24.94;43.01;96889.66;5431598;26;19953;-70
2024/04/14 10:10:16;;;;;;;;;;;;;;;25.05;43.74;96896.44;5431577;26;19974;-70
2024/04/14 10:12:42;;;;;;;;;;;;;;;25.29;41.81;96898.09;5431486;26;20157;-70
2024/04/14 10:15:08;;;;;;;;;;;;;;;25.45;38.47;96891.31;5431487;26;19977;-70
2024/04/14 10:17:34;;;;;;;;;;;;;;;25.57;37.63;96890.75;5431454;26;19966;-70
2024/04/14 10:20:02;;;;;;;;;;;;;;;25.68;37.67;96888.63;5431562;26;19947;-77
2024/04/14 10:22:30;;;;;;;;;;;;;;;25.71;35.79;96886.13;5431454;26;19973;-70
2024/04/14 10:24:56;;;;;;;;;;;;;;;25.80;36.76;96891.56;5431379;26;19977;-69
2024/04/14 10:27:23;;;;;;;;;;;;;;;25.98;35.78;96887.13;5430386;26;19955;-70
2024/04/14 10:29:56;;;;;;;;;;;;;;;26.22;37.05;96884.09;5431336;26;19945;-70
2024/04/14 10:32:22;;;;;;;;;;;;;;;26.27;34.01;96875.91;5431208;26;19951;-70
2024/04/14 10:34:47;;;;;;;;;;;;;;;26.39;35.73;96874.53;5430551;26;20084;-70
2024/04/14 10:37:23;;;;;;;;;;;;;;;26.54;33.92;96876.81;5431260;26;19966;-71
2024/04/14 10:39:49;;;;;;;;;;;;;;;26.70;34.44;96885.28;5431242;26;20106;-75
2024/04/14 10:42:16;;;;;;;;;;;;;;;26.81;33.26;96875.03;5431054;26;20152;-76
2024/04/14 10:44:42;;;;;;;;;;;;;;;26.94;35.77;96876.78;5431136;26;19947;-76
2024/04/14 10:47:08;;;;;;;;;;;;;;;27.08;35.74;96879.38;5430861;26;19978;-76
2024/04/14 10:49:34;;;;;;;;;;;;;;;27.16;33.92;96873.19;5430228;26;20161;-76
2024/04/14 10:52:00;;;;;;;;;;;;;;;27.22;33.91;96874.66;5430951;26;20148;-75
2024/04/14 10:54:26;;;;;;;;;;;;;;;27.29;34.31;96863.41;5430966;26;19949;-75
2024/04/14 10:56:54;;;;;;;;;;;;;;;27.28;32.13;96869.94;5431002;26;20152;-76
2024/04/14 10:59:21;;;;;;;;;;;;;;;27.15;31.70;96868.91;5430793;26;19946;-70
2024/04/14 11:01:48;;;;;;;;;;;;;;;27.05;34.36;96859.25;5430875;26;19967;-70
2024/04/14 11:04:16;;;;;;;;;;;;;;;27.04;33.58;96851.50;5430235;26;19972;-72
2024/04/14 11:06:45;;;;;;;;;;;;;;;27.05;34.69;96850.41;5430567;26;19951;-71
2024/04/14 11:09:12;;;;;;;;;;;;;;;26.93;34.53;96853.69;5430705;26;19957;-70
2024/04/14 11:11:38;;;;;;;;;;;;;;;26.99;34.13;96846.28;5430091;26;19974;-70
2024/04/14 11:14:04;;;;;;;;;;;;;;;27.04;31.09;96851.50;5432657;26;19955;-70
2024/04/14 11:16:33;;;;;;;;;;;;;;;27.25;34.70;96847.09;5434123;26;19981;-74
2024/04/14 11:18:59;;;;;;;;;;;;;;;27.35;33.52;96842.53;5433980;26;19962;-74
2024/04/14 11:21:27;;;;;;;;;;;;;;;27.38;33.50;96839.97;5434071;26;20000;-75
2024/04/14 11:23:54;;;;;;;;;;;;;;;27.36;33.00;96836.00;5433979;26;19959;-76
2024/04/14 11:26:21;;;;;;;;;;;;;;;27.43;33.78;96837.13;5433109;26;19974;-74
2024/04/14 11:28:47;;;;;;;;;;;;;;;27.56;33.86;96827.28;5433904;26;19962;-74
2024/04/14 11:31:13;;;;;;;;;;;;;;;27.52;33.28;96826.34;5433931;26;20019;-75
2024/04/14 11:33:42;;;;;;;;;;;;;;;27.43;33.16;96814.78;5433264;26;19958;-71
2024/04/14 11:36:11;;;;;;;;;;;;;;;27.35;33.69;96823.66;5433758;26;20087;-75
2024/04/14 11:38:37;;;;;;;;;;;;;;;27.28;31.26;96821.47;5433718;26;19958;-74
2024/04/14 11:41:03;;;;;;;;;;;;;;;27.16;33.06;96816.66;5433721;26;19955;-75
2024/04/14 11:43:30;;;;;;;;;;;;;;;27.14;33.79;96825.06;5433600;26;19951;-74
2024/04/14 11:45:56;;;;;;;;;;;;;;;27.20;33.81;96822.22;5433589;26;19950;-75
2024/04/14 11:48:25;;;;;;;;;;;;;;;27.22;32.81;96815.44;5433480;26;19988;-75
2024/04/14 11:50:53;;;;;;;;;;;;;;;27.20;32.57;96814.91;5433491;26;19963;-70
2024/04/14 11:53:19;;;;;;;;;;;;;;;27.28;33.80;96818.75;5432918;26;20154;-70
2024/04/14 11:55:45;;;;;;;;;;;;;;;27.25;33.04;96824.75;5433532;26;19982;-71
2024/04/14 11:58:12;;;;;;;;;;;;;;;27.21;33.61;96819.19;5433565;26;19976;-70
2024/04/14 12:00:38;;;;;;;;;;;;;;;27.24;32.92;96815.13;5433326;26;19981;-70
2024/04/14 12:03:04;;;;;;;;;;;;;;;27.34;35.17;96812.13;5433230;26;19948;-71
2024/04/14 12:05:30;;;;;;;;;;;;;;;27.49;33.54;96813.53;5433385;26;19949;-70
2024/04/14 12:07:56;;;;;;;;;;;;;;;27.56;33.41;96816.53;5432513;26;19965;-70
2024/04/14 12:10:22;;;;;;;;;;;;;;;27.59;33.87;96813.16;5433325;26;19986;-76
2024/04/14 12:12:48;;;;;;;;;;;;;;;27.62;33.97;96814.47;5433218;26;19966;-70
2024/04/14 12:15:14;;;;;;;;;;;;;;;27.69;33.63;96812.06;5433152;26;19969;-69
2024/04/14 12:17:39;;;;;;;;;;;;;;;27.68;33.33;96807.78;5433283;26;19953;-70
2024/04/14 12:20:06;;;;;;;;;;;;;;;27.70;31.97;96800.97;5433125;26;19959;-70
2024/04/14 12:22:31;;;;;;;;;;;;;;;27.72;31.86;96801.44;5433075;26;19977;-70
2024/04/14 12:24:58;;;;;;;;;;;;;;;27.76;33.75;96811.56;5432666;26;19950;-70
2024/04/14 12:27:23;;;;;;;;;;;;;;;27.77;31.65;96800.47;5433015;26;19977;-70
2024/04/14 12:29:49;;;;;;;;;;;;;;;27.68;31.10;96803.19;5433088;26;19954;-70
2024/04/14 12:32:15;;;;;;;;;;;;;;;27.76;32.34;96801.59;5432856;26;19965;-77
2024/04/14 12:34:41;;;;;;;;;;;;;;;27.85;30.18;96785.41;5432992;26;19948;-77
2024/04/14 12:37:07;;;;;;;;;;;;;;;27.93;31.64;96788.09;5432971;26;19950;-76
2024/04/14 12:39:34;;;;;;;;;;;;;;;28.01;31.91;96786.47;5432300;26;19975;-77
2024/04/14 12:42:00;;;;;;;;;;;;;;;27.93;31.07;96784.63;5432821;26;19959;-76